EDDC/DRS METAR and TAF weather

Enter ICAO airport designator
Station Type Date Time Source
EDDC METAR 2020/07/09 08:20 UTC NOAA

EDDC 090820Z 18007KT 140V200 9999 FEW012 SCT037 17/13 Q1016 NOSIG


Station Type Date Time Source
EDDC Decoded METAR 2020/07/09 08:20 UTC NOAA

Dresden-Klotzsche, Germany (EDDC) 51-08N 013-45E 232M
Jul 09, 2020 - 04:20 AM EDT / 2020.07.09 0820 UTC
Wind: from the S (180 degrees) at 8 MPH (7 KT) (direction variable):0
Visibility: greater than 7 mile(s):0
Sky conditions: partly cloudy
Temperature: 62 F (17 C)
Dew Point: 55 F (13 C)
Relative Humidity: 77%
Pressure (altimeter): 30.00 in. Hg (1016 hPa)
ob: EDDC 090820Z 18007KT 140V200 9999 FEW012 SCT037 17/13 Q1016 NOSIG
cycle: 8

Station Type Date Time Source
EDDC TAF 2020/07/09 06:27 UTC NOAA

TAF EDDC 090500Z 0906/1006 17006KT 9999 SCT030
BECMG 0910/0912 24008KT PROB30
TEMPO 0910/0914 4000 RA BKN012 PROB30
TEMPO 0916/0920 SHRA BKN020TCU
BECMG 0918/0920 17005KT

Example: see airport list